Les Masies de Roda





Hora UTC 04:30
Temperatura 6.6 ºC
Sòl 15 cm 4.4 ºC
Subsòl 10 cm 9.9 ºC
Humitat 97.5 %
Pressió 1018.6 hPa
Pluja 0.0 mm
Velocitat vent 0.0 km/h
Direcció vent NNE
Radiació solar 0.1 W/m²

Dades diàries 2020-09-29



Hora UTC (hivern +1h; estiu +2h)
Temperatura (ºC) Humitat (%) Pressió (hPa) Velocitat vent (km/h) Precipitació (mm) Radiació solar (W/m²)
Hora UTC Aire Sòl 15 cm Subsòl 10 cm Humitat Pressió Vel. Dir. Vel. Max Dir. Intent. màx 5 min. Rad. Sol.
00:05 8.4 6.3 11.7 95.2 1018.6 0.0 NNE 0.0 N 0.0 0.1
00:10 8.4 6.3 11.7 95.7 1018.6 0.0 NNE 0.0 NNW 0.0 0.1
00:15 8.7 6.2 11.7 96.9 1018.7 0.0 NNE 0.0 NNW 0.0 0.1
00:20 8.9 6.3 11.7 97.0 1018.7 0.0 NNE 0.0 NNW 0.0 0.1
00:25 8.6 6.4 11.6 95.9 1018.6 0.0 NNE 0.0 NNW 0.0 0.1
00:30 8.6 6.4 11.6 95.8 1018.7 0.0 NNE 0.0 NNW 0.0 0.1
00:35 8.5 6.4 11.7 95.8 1018.6 0.0 NNE 0.0 NNW 0.0 0.1
00:40 8.6 6.4 11.6 96.5 1018.6 0.0 NNE 0.0 NNW 0.0 0.1
00:45 8.8 6.5 11.6 96.4 1018.6 0.0 NNE 0.0 ENE 0.0 0.1
00:50 8.4 6.5 11.6 95.3 1018.5 0.0 NNE 0.0 ENE 0.0 0.1
00:55 8.4 6.4 11.6 95.8 1018.6 0.0 NNE 0.0 ENE 0.0 0.1
01:00 8.3 6.4 11.6 96.4 1018.5 0.0 NNE 0.0 ENE 0.0 0.1
01:05 8.3 6.6 11.5 96.5 1018.6 0.0 NNE 0.0 NW 0.0 0.1
01:10 8.3 6.5 11.5 96.3 1018.6 0.0 NNE 0.0 NW 0.0 0.1
01:15 8.4 6.3 11.5 96.9 1018.6 0.0 NNE 0.0 NW 0.0 0.1
01:20 8.7 6.3 11.4 97.4 1018.6 0.0 NNE 0.0 NW 0.0 0.1
01:25 8.7 6.4 11.5 97.2 1018.5 0.0 NNE 0.0 NW 0.0 0.1
01:30 8.5 6.4 11.4 96.7 1018.5 0.0 NNE 0.0 NW 0.0 0.1
01:35 8.4 6.3 11.4 96.3 1018.6 0.0 NNE 0.0 NW 0.0 0.1
01:40 8.3 6.2 11.4 96.4 1018.5 0.0 NNE 0.0 NW 0.0 0.1
01:45 8.2 6.2 11.3 96.3 1018.5 0.0 NNE 0.0 NW 0.0 0.1
01:50 8.0 6.0 11.3 96.1 1018.5 0.0 NNE 0.0 NW 0.0 0.1
01:55 8.2 5.8 11.2 97.1 1018.4 0.0 NNE 0.0 NW 0.0 0.1
02:00 8.2 5.7 11.1 97.1 1018.4 0.0 NNE 0.0 NW 0.0 0.1
02:05 8.1 5.7 11.1 96.4 1018.5 0.0 NNE 0.0 NW 0.0 0.1
02:10 7.9 5.6 11.0 96.4 1018.6 0.0 NNE 0.0 W 0.0 0.1
02:15 7.7 5.5 11.0 96.4 1018.7 0.0 NNE 0.0 W 0.0 0.1
02:20 7.9 5.3 11.0 97.3 1018.6 0.0 NNE 0.0 W 0.0 0.1
02:25 8.0 5.3 10.9 97.5 1018.6 0.0 NNE 0.0 W 0.0 0.1
02:30 8.0 5.4 10.9 97.5 1018.6 0.0 NNE 0.0 W 0.0 0.1
02:35 8.1 5.4 10.9 97.5 1018.5 0.0 NNE 0.0 W 0.0 0.1
02:40 7.8 5.4 10.8 96.7 1018.6 0.0 NNE 0.0 E 0.0 0.1
02:45 7.6 5.3 10.8 96.3 1018.5 0.0 NNE 0.0 E 0.0 0.1
02:50 7.4 5.2 10.8 95.9 1018.5 0.0 NNE 0.0 E 0.0 0.1
02:55 7.3 5.1 10.7 96.6 1018.4 0.0 NNE 0.0 N 0.0 0.1
03:00 7.4 5.0 10.7 97.3 1018.4 0.0 NNE 0.0 NNE 0.0 0.1
03:05 7.4 5.0 10.6 97.2 1018.4 0.0 NNE 0.0 NNE 0.0 0.1
03:10 7.2 4.9 10.6 96.9 1018.4 0.0 NNE 0.0 NNE 0.0 0.1
03:15 7.0 4.8 10.5 96.7 1018.4 0.0 NNE 0.0 NNE 0.0 0.1
03:20 7.0 4.7 10.5 96.9 1018.4 0.0 NNE 0.0 NNE 0.0 0.1
03:25 7.0 4.7 10.4 97.0 1018.3 0.0 NNE 0.0 NNE 0.0 0.1
03:30 6.8 4.6 10.3 97.0 1018.3 0.0 NNE 0.0 NNE 0.0 0.1
03:35 6.9 4.6 10.3 97.3 1018.3 0.0 NNE 0.0 NNE 0.0 0.1
03:40 6.9 4.5 10.2 97.2 1018.4 0.0 NNE 0.0 NNE 0.0 0.1
03:45 6.8 4.5 10.2 97.2 1018.4 0.0 NNE 0.0 NNE 0.0 0.1
03:50 6.9 4.5 10.2 97.8 1018.4 0.0 NNE 0.0 NNE 0.0 0.1
03:55 6.9 4.5 10.1 97.5 1018.4 0.0 NNE 0.0 NNE 0.0 0.1
04:00 6.9 4.4 10.0 97.8 1018.4 0.0 NNE 0.0 NNE 0.0 0.1
04:05 7.0 4.5 10.0 97.9 1018.4 0.0 NNE 0.0 NNE 0.0 0.1
04:10 6.9 4.4 10.0 97.8 1018.4 0.0 NNE 0.0 NNE 0.0 0.1
04:15 6.8 4.4 10.0 97.6 1018.5 0.0 NNE 0.0 NNE 0.0 0.1
04:20 6.6 4.5 9.9 97.3 1018.5 0.0 NNE 0.0 NNE 0.0 0.1
04:25 6.7 4.5 9.9 97.7 1018.6 0.0 NNE 0.0 NNE 0.0 0.1
04:30 6.6 4.4 9.9 97.5 1018.6 0.0 NNE 0.0 NNE 0.0 0.1
Màxima 9.0 6.6 11.7 97.9 1018.7 0.0 NNE 0.0 NNE 0.0 0.1
Mínima 6.5 4.4 9.9 95.2 1018.3
Total 0.0